createdAt,value
2022-08-18T00:02:13.234Z,7.72
2022-08-18T00:05:00.265Z,7.70
2022-08-18T00:07:46.945Z,7.53
2022-08-18T00:10:32.710Z,7.35
2022-08-18T00:13:17.551Z,7.95
2022-08-18T00:16:03.308Z,7.78
2022-08-18T00:18:48.498Z,7.60
2022-08-18T00:21:34.318Z,7.70
2022-08-18T00:24:19.128Z,8.07
2022-08-18T00:27:05.772Z,8.20
2022-08-18T00:29:54.706Z,7.53
2022-08-18T00:32:45.283Z,7.68
2022-08-18T00:35:37.973Z,7.90
2022-08-18T00:38:24.610Z,7.60
2022-08-18T00:41:10.604Z,8.30
2022-08-18T00:43:58.434Z,7.45
2022-08-18T00:46:43.645Z,7.97
2022-08-18T00:49:28.822Z,8.00
2022-08-18T00:52:16.602Z,7.93
2022-08-18T00:55:03.667Z,7.93
2022-08-18T00:57:51.357Z,8.40
2022-08-18T01:00:37.704Z,9.48
2022-08-18T01:03:25.239Z,8.77
2022-08-18T01:06:17.566Z,8.80
2022-08-18T01:09:03.488Z,8.63
2022-08-18T01:11:48.488Z,9.02
2022-08-18T01:14:33.566Z,8.30
2022-08-18T01:17:37.116Z,8.47
2022-08-18T01:20:51.692Z,8.60
2022-08-18T01:23:37.280Z,8.18
2022-08-18T01:26:25.727Z,8.45
2022-08-18T01:29:11.874Z,8.05
2022-08-18T01:32:04.320Z,7.77
2022-08-18T01:34:51.936Z,8.23
2022-08-18T01:37:37.741Z,8.00
2022-08-18T01:41:23.888Z,8.68
2022-08-18T01:43:29.994Z,8.50
2022-08-18T01:46:20.718Z,9.03
2022-08-18T01:49:07.907Z,8.95
2022-08-18T01:51:55.561Z,9.00
2022-08-18T01:54:41.074Z,8.52
2022-08-18T01:57:27.539Z,8.43
2022-08-18T02:00:15.421Z,8.40
2022-08-18T02:03:02.788Z,8.38
2022-08-18T02:05:50.793Z,8.55
2022-08-18T02:08:37.226Z,8.18
2022-08-18T02:11:22.587Z,8.27
2022-08-18T02:14:07.754Z,8.50
2022-08-18T02:16:53.198Z,7.97
2022-08-18T02:19:45.572Z,8.02
2022-08-18T02:22:30.321Z,8.68
2022-08-18T02:25:16.877Z,8.10
2022-08-18T02:28:02.228Z,8.27
2022-08-18T02:30:47.457Z,8.30
2022-08-18T02:33:32.526Z,8.32
2022-08-18T02:36:18.758Z,8.13
2022-08-18T02:39:04.815Z,8.45
2022-08-18T02:41:51.532Z,8.50
2022-08-18T02:44:37.311Z,8.30
2022-08-18T02:47:22.996Z,8.93
2022-08-18T02:50:08.559Z,8.48
2022-08-18T02:52:56.600Z,7.90
2022-08-18T02:55:41.806Z,8.30
2022-08-18T02:58:30.464Z,7.97
2022-08-18T03:01:18.219Z,8.70
2022-08-18T03:04:06.530Z,8.77
2022-08-18T03:06:52.388Z,8.57
2022-08-18T03:09:37.874Z,8.30
2022-08-18T03:12:23.081Z,8.18
2022-08-18T03:15:08.403Z,8.60
2022-08-18T03:17:53.717Z,8.40
2022-08-18T03:20:39.449Z,8.93
2022-08-18T03:23:29.947Z,8.70
2022-08-18T03:26:16.152Z,9.23
2022-08-18T03:29:01.838Z,9.20
2022-08-18T03:31:48.699Z,8.50
2022-08-18T03:34:34.715Z,8.30
2022-08-18T03:37:19.651Z,9.10
2022-08-18T03:40:07.176Z,8.70
2022-08-18T03:42:52.428Z,8.93
2022-08-18T03:45:37.714Z,8.80
2022-08-18T03:48:23.171Z,8.93
2022-08-18T03:51:16.295Z,8.83
2022-08-18T03:54:04.318Z,8.68
2022-08-18T03:56:49.811Z,8.57
2022-08-18T03:59:35.242Z,9.20
2022-08-18T04:02:20.424Z,9.07
2022-08-18T04:05:06.466Z,8.80
2022-08-18T04:07:54.328Z,8.98
2022-08-18T04:10:39.473Z,8.80
2022-08-18T04:13:24.500Z,9.27
2022-08-18T04:16:10.104Z,8.50
2022-08-18T04:19:00.205Z,9.17
2022-08-18T04:21:45.962Z,9.60
2022-08-18T04:24:33.083Z,9.32
2022-08-18T04:27:20.720Z,9.25
2022-08-18T04:30:06.900Z,9.45
2022-08-18T04:32:52.257Z,9.40
2022-08-18T04:35:37.481Z,9.25
2022-08-18T04:38:23.369Z,10.00
2022-08-18T04:41:10.154Z,9.77
2022-08-18T04:43:58.260Z,9.82
2022-08-18T04:46:51.667Z,9.50
2022-08-18T04:49:37.511Z,10.10
2022-08-18T04:52:41.923Z,10.35
2022-08-18T04:55:29.193Z,9.25
2022-08-18T04:58:16.425Z,10.30
2022-08-18T05:01:01.859Z,10.37
2022-08-18T05:03:50.173Z,10.65
2022-08-18T05:06:36.080Z,10.18
2022-08-18T05:09:22.949Z,10.50
2022-08-18T05:12:12.388Z,10.80
2022-08-18T05:14:57.625Z,10.60
2022-08-18T05:17:43.267Z,10.20
2022-08-18T05:20:31.283Z,10.82
2022-08-18T05:23:17.207Z,10.07
2022-08-18T05:26:03.706Z,10.98
2022-08-18T05:28:48.888Z,10.90
2022-08-18T05:31:40.721Z,10.05
2022-08-18T05:34:25.768Z,10.52
2022-08-18T05:37:40.664Z,10.40
2022-08-18T05:40:26.413Z,10.20
2022-08-18T05:43:15.039Z,9.97
2022-08-18T05:46:03.611Z,9.73
2022-08-18T05:48:48.900Z,10.60
2022-08-18T05:51:40.864Z,9.68
2022-08-18T05:54:49.414Z,11.05
2022-08-18T05:57:50.473Z,10.63
2022-08-18T06:00:37.981Z,10.70
2022-08-18T06:03:29.854Z,10.52
2022-08-18T06:06:32.758Z,10.32
2022-08-18T06:09:50.668Z,9.93
2022-08-18T06:12:47.206Z,10.30
2022-08-18T06:16:00.670Z,9.23
2022-08-18T06:18:49.632Z,9.68
2022-08-18T06:21:46.607Z,9.45
2022-08-18T06:24:42.965Z,8.95
2022-08-18T06:27:44.610Z,8.60
2022-08-18T06:30:49.694Z,8.88
2022-08-18T06:33:50.445Z,9.55
2022-08-18T06:36:43.776Z,8.80
2022-08-18T06:39:35.272Z,8.80
2022-08-18T06:42:26.244Z,8.93
2022-08-18T06:45:13.912Z,9.05
2022-08-18T06:48:24.354Z,8.68
2022-08-18T06:51:14.629Z,8.82
2022-08-18T06:54:07.703Z,7.97
2022-08-18T06:56:54.790Z,8.67
2022-08-18T06:59:39.929Z,8.77
2022-08-18T07:02:42.012Z,8.45
2022-08-18T07:05:32.157Z,8.93
2022-08-18T07:08:31.122Z,8.75
2022-08-18T07:11:22.720Z,8.60
2022-08-18T07:14:22.969Z,8.52
2022-08-18T07:17:19.160Z,8.35
2022-08-18T07:20:22.107Z,8.50
2022-08-18T07:23:08.298Z,8.80
2022-08-18T07:26:05.865Z,7.80
2022-08-18T07:28:53.808Z,8.05
2022-08-18T07:31:46.566Z,8.00
2022-08-18T07:34:47.958Z,8.82
2022-08-18T07:37:46.880Z,8.00
2022-08-18T07:40:58.854Z,8.03
2022-08-18T07:44:03.166Z,8.07
2022-08-18T07:46:56.532Z,7.78
2022-08-18T07:50:13.587Z,8.20
2022-08-18T07:53:24.839Z,8.32
2022-08-18T07:56:27.165Z,8.03
2022-08-18T07:59:15.004Z,7.80
2022-08-18T08:02:10.168Z,8.02
2022-08-18T08:05:07.374Z,7.85
2022-08-18T08:07:58.094Z,7.93
2022-08-18T08:10:53.379Z,7.63
2022-08-18T08:13:55.117Z,7.65
2022-08-18T08:17:00.500Z,7.93
2022-08-18T08:20:17.974Z,7.43
2022-08-18T08:23:18.555Z,7.72
2022-08-18T08:26:30.285Z,7.47
2022-08-18T08:29:31.331Z,7.45
2022-08-18T08:33:01.855Z,7.30
2022-08-18T08:36:28.171Z,7.50
2022-08-18T08:39:32.124Z,7.38
2022-08-18T08:42:41.264Z,6.90
2022-08-18T08:45:30.540Z,7.18
2022-08-18T08:48:29.181Z,7.25
2022-08-18T08:51:32.905Z,6.72
2022-08-18T08:54:26.619Z,7.25
2022-08-18T08:57:14.601Z,7.00
2022-08-18T09:00:03.853Z,7.25
2022-08-18T09:02:49.242Z,6.90
2022-08-18T09:05:41.763Z,6.85
2022-08-18T09:08:50.869Z,7.18
2022-08-18T09:11:58.011Z,6.90
2022-08-18T09:14:56.143Z,7.10
2022-08-18T09:17:55.894Z,7.35
2022-08-18T09:21:05.582Z,7.03
2022-08-18T09:23:58.579Z,7.47
2022-08-18T09:26:51.804Z,6.80
2022-08-18T09:29:37.167Z,6.90
2022-08-18T09:32:29.208Z,7.10
2022-08-18T09:35:23.133Z,7.22
2022-08-18T09:38:33.309Z,6.75
2022-08-18T09:41:32.846Z,6.97
2022-08-18T09:44:46.493Z,6.78
2022-08-18T09:47:31.745Z,6.32
2022-08-18T09:50:29.989Z,6.47
2022-08-18T09:56:54.067Z,6.77
2022-08-18T09:59:48.017Z,6.50
2022-08-18T10:02:36.942Z,6.18
2022-08-18T10:05:28.027Z,6.38
2022-08-18T10:08:14.946Z,6.43
2022-08-18T10:11:40.374Z,6.20
2022-08-18T10:14:49.670Z,6.20
2022-08-18T10:18:05.973Z,6.40
2022-08-18T10:21:18.873Z,5.95
2022-08-18T10:24:32.035Z,6.78
2022-08-18T10:27:34.424Z,6.27
2022-08-18T10:30:36.446Z,6.30
2022-08-18T10:34:16.365Z,6.00
2022-08-18T10:37:12.019Z,5.90
2022-08-18T10:40:14.371Z,6.18
2022-08-18T10:43:45.398Z,5.90
2022-08-18T10:49:47.965Z,6.15
2022-08-18T10:53:35.318Z,6.20
2022-08-18T10:59:49.092Z,6.07
2022-08-18T11:03:42.688Z,5.70
2022-08-18T11:06:21.549Z,5.63
2022-08-18T11:09:09.755Z,5.90
2022-08-18T11:12:00.978Z,5.97
2022-08-18T11:15:21.993Z,5.47
2022-08-18T11:18:28.926Z,6.00
2022-08-18T11:21:32.052Z,6.00
2022-08-18T11:24:35.693Z,5.40
2022-08-18T11:27:29.151Z,5.70
2022-08-18T11:30:14.579Z,5.20
2022-08-18T11:33:03.572Z,5.40
2022-08-18T11:35:52.776Z,5.88
2022-08-18T11:38:39.461Z,5.43
2022-08-18T11:41:47.883Z,5.72
2022-08-18T11:44:38.711Z,5.27
2022-08-18T11:47:27.525Z,5.60
2022-08-18T11:50:13.603Z,5.43
2022-08-18T11:53:15.076Z,5.10
2022-08-18T11:56:14.452Z,5.57
2022-08-18T11:59:05.460Z,5.60
2022-08-18T12:01:54.504Z,5.05
2022-08-18T12:04:43.127Z,5.53
2022-08-18T12:07:33.923Z,5.55
2022-08-18T12:10:26.313Z,5.25
2022-08-18T12:13:23.177Z,5.40
2022-08-18T12:16:11.975Z,4.97
2022-08-18T12:18:57.511Z,5.20
2022-08-18T12:21:55.209Z,5.10
2022-08-18T12:24:41.434Z,5.13
2022-08-18T12:27:31.876Z,5.13
2022-08-18T12:30:19.024Z,5.07
2022-08-18T12:33:08.108Z,5.35
2022-08-18T12:35:55.706Z,4.95
2022-08-18T12:38:43.546Z,4.85
2022-08-18T12:41:29.007Z,4.77
2022-08-18T12:44:15.384Z,5.18
2022-08-18T12:47:10.087Z,5.13
2022-08-18T12:49:56.349Z,5.05
2022-08-18T12:52:41.683Z,4.88
2022-08-18T12:55:34.220Z,4.93
2022-08-18T12:58:19.976Z,4.80
2022-08-18T13:01:05.522Z,4.80
2022-08-18T13:04:12.893Z,5.13
2022-08-18T13:07:01.874Z,4.93
2022-08-18T13:09:54.238Z,4.80
2022-08-18T13:12:39.936Z,4.88
2022-08-18T13:15:26.165Z,4.85
2022-08-18T13:18:14.212Z,4.63
2022-08-18T13:21:00.615Z,4.57
2022-08-18T13:23:45.977Z,4.77
2022-08-18T13:26:33.864Z,4.78
2022-08-18T13:29:20.992Z,4.82
2022-08-18T13:32:09.331Z,3.95
2022-08-18T13:34:54.752Z,4.40
2022-08-18T13:37:41.963Z,4.60
2022-08-18T13:40:29.319Z,4.20
2022-08-18T13:43:21.016Z,4.50
2022-08-18T13:46:17.232Z,4.40
2022-08-18T13:49:03.557Z,4.50
2022-08-18T13:51:50.559Z,4.30
2022-08-18T13:54:36.070Z,4.80
2022-08-18T13:57:21.427Z,4.78
2022-08-18T14:00:18.274Z,4.88
2022-08-18T14:03:06.817Z,4.78
2022-08-18T14:06:01.481Z,4.00
2022-08-18T14:08:46.917Z,4.43
2022-08-18T14:11:34.158Z,4.80
2022-08-18T14:14:21.554Z,4.10
2022-08-18T14:17:07.210Z,4.30
2022-08-18T14:20:21.118Z,4.30
2022-08-18T14:23:33.163Z,4.13
2022-08-18T14:26:37.495Z,4.47
2022-08-18T14:29:45.624Z,4.05
2022-08-18T14:32:31.943Z,4.40
2022-08-18T14:36:04.697Z,4.30
2022-08-18T14:38:27.822Z,4.38
2022-08-18T14:41:14.710Z,4.80
2022-08-18T14:44:13.726Z,3.85
2022-08-18T14:47:00.096Z,4.47
2022-08-18T14:49:48.009Z,4.93
2022-08-18T14:52:34.118Z,5.00
2022-08-18T14:55:23.819Z,4.97
2022-08-18T14:58:13.824Z,4.53
2022-08-18T15:01:08.573Z,4.43
2022-08-18T15:03:58.478Z,4.73
2022-08-18T15:06:44.416Z,4.65
2022-08-18T15:09:45.405Z,4.57
2022-08-18T15:12:31.768Z,4.50
2022-08-18T15:15:18.913Z,4.65
2022-08-18T15:18:09.831Z,4.43
2022-08-18T15:21:34.759Z,4.28
2022-08-18T15:24:40.288Z,4.07
2022-08-18T15:27:42.865Z,4.40
2022-08-18T15:30:29.196Z,4.50
2022-08-18T15:33:15.971Z,4.80
2022-08-18T15:36:04.525Z,4.65
2022-08-18T15:38:56.437Z,4.30
2022-08-18T15:41:48.515Z,4.28
2022-08-18T15:44:34.000Z,4.10
2022-08-18T15:47:20.942Z,4.13
2022-08-18T15:50:25.344Z,4.40
2022-08-18T15:53:12.388Z,4.30
2022-08-18T15:56:04.332Z,4.85
2022-08-18T15:58:50.729Z,4.45
2022-08-18T16:01:39.594Z,4.50
2022-08-18T16:04:27.764Z,4.07
2022-08-18T16:07:14.826Z,4.10
2022-08-18T16:10:04.159Z,4.00
2022-08-18T16:12:49.998Z,4.30
2022-08-18T16:15:39.311Z,4.07
2022-08-18T16:18:25.171Z,4.40
2022-08-18T16:21:12.632Z,4.35
2022-08-18T16:23:58.252Z,4.20
2022-08-18T16:26:43.973Z,4.75
2022-08-18T16:29:29.351Z,5.30
2022-08-18T16:32:16.433Z,5.22
2022-08-18T16:35:01.629Z,5.55
2022-08-18T16:37:49.082Z,5.10
2022-08-18T16:40:34.491Z,5.35
2022-08-18T16:43:19.905Z,4.87
2022-08-18T16:46:14.148Z,5.05
2022-08-18T16:48:59.407Z,4.82
2022-08-18T16:51:45.337Z,4.65
2022-08-18T16:54:30.909Z,5.13
2022-08-18T16:57:53.818Z,4.37
2022-08-18T17:00:59.534Z,4.78
2022-08-18T17:04:03.443Z,4.35
2022-08-18T17:06:49.977Z,5.20
2022-08-18T17:09:35.920Z,5.35
2022-08-18T17:12:21.494Z,6.27
2022-08-18T17:15:08.084Z,6.45
2022-08-18T17:17:54.325Z,7.22
2022-08-18T17:20:40.101Z,7.03
2022-08-18T17:23:25.182Z,7.35
2022-08-18T17:26:20.321Z,6.60
2022-08-18T17:29:14.051Z,7.25
2022-08-18T17:32:04.062Z,7.13
2022-08-18T17:34:59.517Z,7.43
2022-08-18T17:37:53.060Z,6.75
2022-08-18T17:40:43.504Z,6.70
2022-08-18T17:46:37.074Z,7.10
2022-08-18T17:49:48.756Z,6.90
2022-08-18T17:53:01.278Z,7.30
2022-08-18T17:55:52.499Z,7.00
2022-08-18T17:58:42.109Z,6.90
2022-08-18T18:01:27.434Z,7.22
2022-08-18T18:04:12.985Z,7.13
2022-08-18T18:06:58.595Z,7.00
2022-08-18T18:09:54.695Z,7.07
2022-08-18T18:12:41.677Z,7.20
2022-08-18T18:15:32.414Z,7.40
2022-08-18T18:18:20.417Z,7.07
2022-08-18T18:21:17.961Z,7.50
2022-08-18T18:24:06.185Z,7.70
2022-08-18T18:26:52.170Z,7.53
2022-08-18T18:29:39.840Z,7.55
2022-08-18T18:32:58.783Z,7.47
2022-08-18T18:35:55.506Z,7.88
2022-08-18T18:38:48.906Z,7.37
2022-08-18T18:41:38.001Z,7.32
2022-08-18T18:44:28.167Z,7.28
2022-08-18T18:47:19.840Z,7.20
2022-08-18T18:50:12.498Z,7.93
2022-08-18T18:53:26.739Z,7.33
2022-08-18T18:56:23.962Z,7.32
2022-08-18T18:59:28.784Z,7.50
2022-08-18T19:02:46.133Z,7.40
2022-08-18T19:05:44.749Z,7.35
2022-08-18T19:08:57.941Z,7.80
2022-08-18T19:11:59.258Z,7.22
2022-08-18T19:15:03.225Z,7.28
2022-08-18T19:17:56.232Z,7.28
2022-08-18T19:22:02.043Z,7.38
2022-08-18T19:24:01.718Z,7.43
2022-08-18T19:26:53.649Z,7.30
2022-08-18T19:29:43.696Z,7.47
2022-08-18T19:32:45.953Z,7.50
2022-08-18T19:35:39.392Z,7.50
2022-08-18T19:38:35.660Z,7.43
2022-08-18T19:41:33.187Z,7.13
2022-08-18T19:44:21.437Z,7.53
2022-08-18T19:47:15.753Z,7.30
2022-08-18T19:50:11.563Z,7.40
2022-08-18T19:53:12.337Z,7.50
2022-08-18T19:56:23.507Z,7.45
2022-08-18T19:59:36.180Z,7.05
2022-08-18T20:02:35.229Z,7.50
2022-08-18T20:05:45.771Z,7.60
2022-08-18T20:08:56.558Z,6.87
2022-08-18T20:12:01.073Z,7.40
2022-08-18T20:15:00.384Z,7.03
2022-08-18T20:17:57.579Z,7.22
2022-08-18T20:20:43.092Z,6.95
2022-08-18T20:23:36.835Z,7.00
2022-08-18T20:26:43.630Z,7.20
2022-08-18T20:29:42.714Z,6.88
2022-08-18T20:32:34.506Z,7.22
2022-08-18T20:35:26.721Z,7.25
2022-08-18T20:38:19.179Z,6.87
2022-08-18T20:41:23.029Z,6.80
2022-08-18T20:44:21.827Z,7.03
2022-08-18T20:47:48.245Z,7.07
2022-08-18T20:50:57.426Z,7.00
2022-08-18T20:54:01.555Z,7.07
2022-08-18T20:56:53.027Z,7.00
2022-08-18T20:59:44.449Z,7.30
2022-08-18T21:02:35.593Z,7.32
2022-08-18T21:05:32.687Z,6.70
2022-08-18T21:08:26.443Z,7.00
2022-08-18T21:11:35.994Z,7.07
2022-08-18T21:14:30.564Z,7.38
2022-08-18T21:17:17.596Z,7.75
2022-08-18T21:20:18.825Z,6.90
2022-08-18T21:23:07.569Z,6.90
2022-08-18T21:25:55.974Z,7.82
2022-08-18T21:28:43.446Z,7.07
2022-08-18T21:31:42.231Z,7.43
2022-08-18T21:34:35.806Z,7.47
2022-08-18T21:37:21.121Z,7.03
2022-08-18T21:40:06.693Z,7.07
2022-08-18T21:42:52.320Z,6.90
2022-08-18T21:45:47.604Z,6.80
2022-08-18T21:48:38.032Z,7.13
2022-08-18T21:51:27.654Z,6.77
2022-08-18T21:54:17.856Z,6.82
2022-08-18T21:57:24.426Z,7.10
2022-08-18T22:00:23.874Z,6.97
2022-08-18T22:03:27.005Z,7.35
2022-08-18T22:06:22.076Z,7.43
2022-08-18T22:09:29.378Z,7.50
2022-08-18T22:12:42.526Z,7.95
2022-08-18T22:15:27.534Z,7.68
2022-08-18T22:18:18.637Z,7.45
2022-08-18T22:21:06.457Z,7.10
2022-08-18T22:24:15.597Z,7.65
2022-08-18T22:27:00.722Z,7.18
2022-08-18T22:29:53.344Z,7.35
2022-08-18T22:32:38.579Z,7.47
2022-08-18T22:35:27.833Z,7.27
2022-08-18T22:38:13.058Z,7.07
2022-08-18T22:40:59.644Z,7.05
2022-08-18T22:43:45.064Z,7.28
2022-08-18T22:46:34.236Z,7.47
2022-08-18T22:49:20.903Z,7.20
2022-08-18T22:52:12.097Z,6.97
2022-08-18T22:55:06.525Z,7.30
2022-08-18T22:57:55.647Z,7.00
2022-08-18T23:00:41.675Z,7.07
2022-08-18T23:03:28.485Z,7.53
2022-08-18T23:06:14.860Z,7.60
2022-08-18T23:09:03.152Z,7.45
2022-08-18T23:11:48.150Z,7.50
2022-08-18T23:14:34.363Z,7.60
2022-08-18T23:17:21.467Z,7.60
2022-08-18T23:20:12.550Z,7.55
2022-08-18T23:23:03.481Z,7.50
2022-08-18T23:25:50.267Z,7.68
2022-08-18T23:28:35.429Z,7.85
2022-08-18T23:31:20.628Z,8.13
2022-08-18T23:34:06.213Z,7.97
2022-08-18T23:37:01.462Z,7.53
2022-08-18T23:39:48.225Z,7.72
2022-08-18T23:42:33.321Z,7.60
2022-08-18T23:45:19.470Z,7.30
2022-08-18T23:48:06.427Z,7.25
2022-08-18T23:50:51.582Z,7.90
2022-08-18T23:53:36.446Z,7.43
2022-08-18T23:56:22.432Z,7.40
2022-08-18T23:59:08.164Z,7.33
